sensor_id;sensor_type;location;lat;lon;timestamp;pressure;altitude;pressure_sealevel;temperature;humidity
14117;BME280;7137;51.436;6.544;2023-04-02T00:01:25;100494.03;;;6.94;100.00
14117;BME280;7137;51.436;6.544;2023-04-02T00:04:35;100496.69;;;6.91;100.00
14117;BME280;7137;51.436;6.544;2023-04-02T00:07:37;100503.47;;;6.98;100.00
14117;BME280;7137;51.436;6.544;2023-04-02T00:10:46;100508.78;;;6.92;100.00
14117;BME280;7137;51.436;6.544;2023-04-02T00:13:51;100511.53;;;6.84;100.00
14117;BME280;7137;51.436;6.544;2023-04-02T00:16:55;100533.09;;;6.87;100.00
14117;BME280;7137;51.436;6.544;2023-04-02T00:19:59;100529.88;;;6.74;100.00
14117;BME280;7137;51.436;6.544;2023-04-02T00:23:05;100528.09;;;6.79;100.00
14117;BME280;7137;51.436;6.544;2023-04-02T00:26:20;100543.03;;;6.66;100.00
14117;BME280;7137;51.436;6.544;2023-04-02T00:29:22;100551.78;;;6.59;100.00
14117;BME280;7137;51.436;6.544;2023-04-02T00:32:27;100553.41;;;6.66;100.00
14117;BME280;7137;51.436;6.544;2023-04-02T00:35:29;100561.16;;;6.68;100.00
14117;BME280;7137;51.436;6.544;2023-04-02T00:38:32;100562.91;;;6.67;100.00
14117;BME280;7137;51.436;6.544;2023-04-02T00:41:36;100568.09;;;6.67;100.00
14117;BME280;7137;51.436;6.544;2023-04-02T00:44:40;100578.56;;;6.63;100.00
14117;BME280;7137;51.436;6.544;2023-04-02T00:47:44;100573.41;;;6.60;100.00
14117;BME280;7137;51.436;6.544;2023-04-02T00:50:46;100589.81;;;6.60;100.00
14117;BME280;7137;51.436;6.544;2023-04-02T00:53:51;100587.16;;;6.65;100.00
14117;BME280;7137;51.436;6.544;2023-04-02T00:56:54;100597.66;;;6.59;100.00
14117;BME280;7137;51.436;6.544;2023-04-02T00:59:59;100594.19;;;6.58;100.00
14117;BME280;7137;51.436;6.544;2023-04-02T01:03:30;100608.09;;;6.55;100.00
14117;BME280;7137;51.436;6.544;2023-04-02T01:06:37;100622.91;;;6.47;100.00
14117;BME280;7137;51.436;6.544;2023-04-02T01:09:48;100624.75;;;6.41;100.00
14117;BME280;7137;51.436;6.544;2023-04-02T01:12:58;100624.72;;;6.42;100.00
14117;BME280;7137;51.436;6.544;2023-04-02T01:16:11;100622.22;;;6.38;100.00
14117;BME280;7137;51.436;6.544;2023-04-02T01:19:38;100628.31;;;6.35;100.00
14117;BME280;7137;51.436;6.544;2023-04-02T01:22:50;100619.69;;;6.35;100.00
14117;BME280;7137;51.436;6.544;2023-04-02T01:25:59;100642.09;;;6.39;100.00
14117;BME280;7137;51.436;6.544;2023-04-02T01:29:09;100646.47;;;6.35;100.00
14117;BME280;7137;51.436;6.544;2023-04-02T01:32:15;100639.56;;;6.33;100.00
14117;BME280;7137;51.436;6.544;2023-04-02T01:35:17;100652.53;;;6.34;100.00
14117;BME280;7137;51.436;6.544;2023-04-02T01:38:25;100655.16;;;6.31;100.00
14117;BME280;7137;51.436;6.544;2023-04-02T01:41:32;100657.81;;;6.28;100.00
14117;BME280;7137;51.436;6.544;2023-04-02T01:44:38;100662.91;;;6.33;100.00
14117;BME280;7137;51.436;6.544;2023-04-02T01:47:42;100671.63;;;6.29;100.00
14117;BME280;7137;51.436;6.544;2023-04-02T01:50:46;100680.22;;;6.32;100.00
14117;BME280;7137;51.436;6.544;2023-04-02T01:53:49;100678.53;;;6.30;100.00
14117;BME280;7137;51.436;6.544;2023-04-02T01:56:50;100682.88;;;6.29;100.00
14117;BME280;7137;51.436;6.544;2023-04-02T01:59:54;100698.38;;;6.32;100.00
14117;BME280;7137;51.436;6.544;2023-04-02T02:02:55;100692.22;;;6.39;100.00
14117;BME280;7137;51.436;6.544;2023-04-02T02:05:57;100707.88;;;6.33;100.00
14117;BME280;7137;51.436;6.544;2023-04-02T02:09:01;100714.78;;;6.33;100.00
14117;BME280;7137;51.436;6.544;2023-04-02T02:12:04;100712.97;;;6.39;100.00
14117;BME280;7137;51.436;6.544;2023-04-02T02:15:13;100726.88;;;6.35;100.00
14117;BME280;7137;51.436;6.544;2023-04-02T02:18:19;100725.19;;;6.31;100.00
14117;BME280;7137;51.436;6.544;2023-04-02T02:21:30;100733.91;;;6.27;100.00
14117;BME280;7137;51.436;6.544;2023-04-02T02:24:38;100735.69;;;6.23;100.00
14117;BME280;7137;51.436;6.544;2023-04-02T02:27:51;100752.25;;;6.13;100.00
14117;BME280;7137;51.436;6.544;2023-04-02T02:30:59;100749.66;;;6.12;100.00
14117;BME280;7137;51.436;6.544;2023-04-02T02:34:07;100756.53;;;6.14;100.00
14117;BME280;7137;51.436;6.544;2023-04-02T02:37:15;100776.47;;;6.11;100.00
14117;BME280;7137;51.436;6.544;2023-04-02T02:40:20;100775.63;;;6.10;100.00
14117;BME280;7137;51.436;6.544;2023-04-02T02:43:25;100786.00;;;6.10;100.00
14117;BME280;7137;51.436;6.544;2023-04-02T02:46:30;100785.91;;;6.16;100.00
14117;BME280;7137;51.436;6.544;2023-04-02T02:49:36;100793.72;;;6.13;100.00
14117;BME280;7137;51.436;6.544;2023-04-02T02:52:45;100796.31;;;6.13;100.00
14117;BME280;7137;51.436;6.544;2023-04-02T02:55:49;100813.56;;;6.16;100.00
14117;BME280;7137;51.436;6.544;2023-04-02T02:58:52;100813.69;;;6.07;100.00
14117;BME280;7137;51.436;6.544;2023-04-02T03:01:57;100821.50;;;6.02;100.00
14117;BME280;7137;51.436;6.544;2023-04-02T03:04:59;100825.81;;;6.03;100.00
14117;BME280;7137;51.436;6.544;2023-04-02T03:08:03;100830.13;;;6.04;100.00
14117;BME280;7137;51.436;6.544;2023-04-02T03:11:10;100837.97;;;5.98;100.00
14117;BME280;7137;51.436;6.544;2023-04-02T03:14:19;100840.56;;;6.00;100.00
14117;BME280;7137;51.436;6.544;2023-04-02T03:17:28;100838.81;;;6.00;100.00
14117;BME280;7137;51.436;6.544;2023-04-02T03:20:35;100846.59;;;6.00;100.00
14117;BME280;7137;51.436;6.544;2023-04-02T03:23:40;100855.22;;;6.01;100.00
14117;BME280;7137;51.436;6.544;2023-04-02T03:26:48;100863.13;;;5.90;100.00
14117;BME280;7137;51.436;6.544;2023-04-02T03:29:59;100865.69;;;5.93;100.00
14117;BME280;7137;51.436;6.544;2023-04-02T03:33:11;100882.06;;;5.97;100.00
14117;BME280;7137;51.436;6.544;2023-04-02T03:36:18;100889.03;;;5.88;100.00
14117;BME280;7137;51.436;6.544;2023-04-02T03:39:24;100895.06;;;5.90;100.00
14117;BME280;7137;51.436;6.544;2023-04-02T03:42:29;100897.66;;;5.95;100.00
14117;BME280;7137;51.436;6.544;2023-04-02T03:45:40;100906.25;;;5.99;100.00
14117;BME280;7137;51.436;6.544;2023-04-02T03:48:45;100918.38;;;5.97;100.00
14117;BME280;7137;51.436;6.544;2023-04-02T03:51:52;100929.78;;;5.73;100.00
14117;BME280;7137;51.436;6.544;2023-04-02T03:54:57;100939.28;;;5.72;100.00
14117;BME280;7137;51.436;6.544;2023-04-02T03:58:02;100936.66;;;5.78;100.00
14117;BME280;7137;51.436;6.544;2023-04-02T04:01:13;100947.91;;;5.77;100.00
14117;BME280;7137;51.436;6.544;2023-04-02T04:04:20;100946.16;;;5.75;100.00
14117;BME280;7137;51.436;6.544;2023-04-02T04:07:29;100955.75;;;5.65;100.00
14117;BME280;7137;51.436;6.544;2023-04-02T04:10:32;100955.78;;;5.63;100.00
14117;BME280;7137;51.436;6.544;2023-04-02T04:13:40;100964.41;;;5.64;100.00
14117;BME280;7137;51.436;6.544;2023-04-02T04:16:48;100979.97;;;5.58;100.00
14117;BME280;7137;51.436;6.544;2023-04-02T04:19:58;100984.38;;;5.45;100.00
14117;BME280;7137;51.436;6.544;2023-04-02T04:23:09;100993.94;;;5.37;100.00
14117;BME280;7137;51.436;6.544;2023-04-02T04:26:18;101004.31;;;5.35;100.00
14117;BME280;7137;51.436;6.544;2023-04-02T04:29:31;101008.56;;;5.43;100.00
14117;BME280;7137;51.436;6.544;2023-04-02T04:32:42;101021.53;;;5.43;100.00
14117;BME280;7137;51.436;6.544;2023-04-02T04:35:53;101025.88;;;5.36;100.00
14117;BME280;7137;51.436;6.544;2023-04-02T04:38:58;101035.38;;;5.37;100.00
14117;BME280;7137;51.436;6.544;2023-04-02T04:42:06;101049.19;;;5.38;100.00
14117;BME280;7137;51.436;6.544;2023-04-02T04:45:27;101050.97;;;5.23;100.00
14117;BME280;7137;51.436;6.544;2023-04-02T04:48:35;101061.34;;;5.17;100.00
14117;BME280;7137;51.436;6.544;2023-04-02T04:51:42;101067.41;;;5.12;100.00
14117;BME280;7137;51.436;6.544;2023-04-02T04:54:46;101069.16;;;5.06;100.00
14117;BME280;7137;51.436;6.544;2023-04-02T04:57:49;101075.19;;;5.04;100.00
14117;BME280;7137;51.436;6.544;2023-04-02T05:00:57;101077.78;;;5.05;100.00
14117;BME280;7137;51.436;6.544;2023-04-02T05:04:03;101089.00;;;5.03;100.00
14117;BME280;7137;51.436;6.544;2023-04-02T05:07:12;101095.88;;;5.13;100.00
14117;BME280;7137;51.436;6.544;2023-04-02T05:10:18;101098.50;;;5.07;100.00
14117;BME280;7137;51.436;6.544;2023-04-02T05:13:30;101109.75;;;4.98;100.00
14117;BME280;7137;51.436;6.544;2023-04-02T05:16:38;101118.34;;;5.05;100.00
14117;BME280;7137;51.436;6.544;2023-04-02T05:19:44;101131.31;;;4.97;100.00
14117;BME280;7137;51.436;6.544;2023-04-02T05:22:52;101127.88;;;4.86;100.00
14117;BME280;7137;51.436;6.544;2023-04-02T05:26:02;101148.56;;;4.88;100.00
14117;BME280;7137;51.436;6.544;2023-04-02T05:29:08;101154.63;;;4.81;100.00
14117;BME280;7137;51.436;6.544;2023-04-02T05:32:16;101157.22;;;4.84;100.00
14117;BME280;7137;51.436;6.544;2023-04-02T05:35:27;101164.13;;;4.85;100.00
14117;BME280;7137;51.436;6.544;2023-04-02T05:38:34;101171.88;;;4.88;100.00
14117;BME280;7137;51.436;6.544;2023-04-02T05:41:40;101182.22;;;4.92;100.00
14117;BME280;7137;51.436;6.544;2023-04-02T05:44:53;101179.63;;;4.97;100.00
14117;BME280;7137;51.436;6.544;2023-04-02T05:47:57;101185.69;;;4.93;100.00
14117;BME280;7137;51.436;6.544;2023-04-02T05:51:01;101197.78;;;4.79;100.00
14117;BME280;7137;51.436;6.544;2023-04-02T05:54:15;101200.34;;;4.66;100.00
14117;BME280;7137;51.436;6.544;2023-04-02T05:57:27;101209.81;;;4.64;100.00
14117;BME280;7137;51.436;6.544;2023-04-02T06:00:44;101209.81;;;4.52;100.00
14117;BME280;7137;51.436;6.544;2023-04-02T06:03:54;101222.75;;;4.58;100.00
14117;BME280;7137;51.436;6.544;2023-04-02T06:07:00;101231.38;;;4.56;100.00
14117;BME280;7137;51.436;6.544;2023-04-02T06:10:09;101240.00;;;4.58;100.00
14117;BME280;7137;51.436;6.544;2023-04-02T06:13:15;101239.13;;;4.62;100.00
14117;BME280;7137;51.436;6.544;2023-04-02T06:16:27;101249.44;;;4.43;100.00
14117;BME280;7137;51.436;6.544;2023-04-02T06:19:31;101263.28;;;4.52;100.00
14117;BME280;7137;51.436;6.544;2023-04-02T06:22:38;101262.38;;;4.48;100.00
14117;BME280;7137;51.436;6.544;2023-04-02T06:25:46;101264.97;;;4.43;100.00
14117;BME280;7137;51.436;6.544;2023-04-02T06:28:52;101292.59;;;4.54;100.00
14117;BME280;7137;51.436;6.544;2023-04-02T06:31:58;101283.09;;;4.51;100.00
14117;BME280;7137;51.436;6.544;2023-04-02T06:35:00;101288.28;;;4.51;100.00
14117;BME280;7137;51.436;6.544;2023-04-02T06:38:04;101298.63;;;4.57;100.00
14117;BME280;7137;51.436;6.544;2023-04-02T06:41:16;101306.38;;;4.51;100.00
14117;BME280;7137;51.436;6.544;2023-04-02T06:44:20;101304.63;;;4.50;100.00
14117;BME280;7137;51.436;6.544;2023-04-02T06:47:29;101315.84;;;4.43;100.00
14117;BME280;7137;51.436;6.544;2023-04-02T06:50:37;101314.97;;;4.44;100.00
14117;BME280;7137;51.436;6.544;2023-04-02T06:53:43;101318.47;;;4.51;100.00
14117;BME280;7137;51.436;6.544;2023-04-02T06:56:48;101331.41;;;4.51;100.00
14117;BME280;7137;51.436;6.544;2023-04-02T06:59:50;101333.94;;;4.37;100.00
14117;BME280;7137;51.436;6.544;2023-04-02T07:02:54;101341.69;;;4.41;100.00
14117;BME280;7137;51.436;6.544;2023-04-02T07:05:56;101350.31;;;4.46;99.69
14117;BME280;7137;51.436;6.544;2023-04-02T07:08:59;101371.88;;;4.45;98.95
14117;BME280;7137;51.436;6.544;2023-04-02T07:12:10;101361.53;;;4.50;97.82
14117;BME280;7137;51.436;6.544;2023-04-02T07:15:14;101378.88;;;4.66;97.09
14117;BME280;7137;51.436;6.544;2023-04-02T07:18:22;101382.31;;;4.65;97.73
14117;BME280;7137;51.436;6.544;2023-04-02T07:21:25;101395.22;;;4.59;97.71
14117;BME280;7137;51.436;6.544;2023-04-02T07:24:26;101396.13;;;4.69;98.31
14117;BME280;7137;51.436;6.544;2023-04-02T07:27:33;101400.44;;;4.71;97.41
14117;BME280;7137;51.436;6.544;2023-04-02T07:30:38;101409.00;;;4.58;96.76
14117;BME280;7137;51.436;6.544;2023-04-02T07:33:40;101415.97;;;4.68;98.13
14117;BME280;7137;51.436;6.544;2023-04-02T07:36:42;101431.38;;;4.50;96.60
14117;BME280;7137;51.436;6.544;2023-04-02T07:39:43;101432.28;;;4.58;97.91
14117;BME280;7137;51.436;6.544;2023-04-02T07:42:47;101444.34;;;4.53;97.57
14117;BME280;7137;51.436;6.544;2023-04-02T07:45:48;101450.34;;;4.46;97.79
14117;BME280;7137;51.436;6.544;2023-04-02T07:48:50;101452.91;;;4.41;97.81
14117;BME280;7137;51.436;6.544;2023-04-02T07:51:52;101459.78;;;4.36;97.81
14117;BME280;7137;51.436;6.544;2023-04-02T07:54:53;101461.53;;;4.42;97.97
14117;BME280;7137;51.436;6.544;2023-04-02T07:57:57;101459.88;;;4.52;97.05
14117;BME280;7137;51.436;6.544;2023-04-02T08:01:00;101465.91;;;4.57;96.37
14117;BME280;7137;51.436;6.544;2023-04-02T08:04:03;101463.41;;;4.73;96.84
14117;BME280;7137;51.436;6.544;2023-04-02T08:07:06;101477.25;;;4.83;95.86
14117;BME280;7137;51.436;6.544;2023-04-02T08:10:10;101478.97;;;4.80;94.99
14117;BME280;7137;51.436;6.544;2023-04-02T08:13:14;101496.19;;;4.76;95.16
14117;BME280;7137;51.436;6.544;2023-04-02T08:16:15;101502.22;;;4.72;95.74
14117;BME280;7137;51.436;6.544;2023-04-02T08:19:17;101504.75;;;4.64;96.47
14117;BME280;7137;51.436;6.544;2023-04-02T08:22:20;101516.78;;;4.58;95.46
14117;BME280;7137;51.436;6.544;2023-04-02T08:25:23;101518.59;;;4.69;95.25
14117;BME280;7137;51.436;6.544;2023-04-02T08:28:26;101524.63;;;4.70;94.53
14117;BME280;7137;51.436;6.544;2023-04-02T08:31:28;101529.81;;;4.70;93.85
14117;BME280;7137;51.436;6.544;2023-04-02T08:34:30;101526.44;;;4.82;93.81
14117;BME280;7137;51.436;6.544;2023-04-02T08:37:31;101538.41;;;4.66;92.93
14117;BME280;7137;51.436;6.544;2023-04-02T08:40:35;101534.91;;;4.59;93.03
14117;BME280;7137;51.436;6.544;2023-04-02T08:43:55;101547.94;;;4.70;92.55
14117;BME280;7137;51.436;6.544;2023-04-02T08:47:02;101547.09;;;4.75;91.42
14117;BME280;7137;51.436;6.544;2023-04-02T08:50:13;101559.22;;;4.83;90.67
14117;BME280;7137;51.436;6.544;2023-04-02T08:53:24;101564.50;;;5.02;90.10
14117;BME280;7137;51.436;6.544;2023-04-02T08:56:30;101557.59;;;5.01;90.18
14117;BME280;7137;51.436;6.544;2023-04-02T08:59:37;101580.16;;;5.31;89.09
14117;BME280;7137;51.436;6.544;2023-04-02T09:02:40;101587.03;;;5.23;87.87
14117;BME280;7137;51.436;6.544;2023-04-02T09:05:46;101590.44;;;5.12;87.46
14117;BME280;7137;51.436;6.544;2023-04-02T09:08:50;101594.84;;;5.31;88.19
14117;BME280;7137;51.436;6.544;2023-04-02T09:11:54;101601.75;;;5.33;87.54
14117;BME280;7137;51.436;6.544;2023-04-02T09:15:10;101612.09;;;5.27;87.74
14117;BME280;7137;51.436;6.544;2023-04-02T09:18:19;101617.22;;;5.18;87.53
14117;BME280;7137;51.436;6.544;2023-04-02T09:21:30;101618.19;;;5.37;87.01
14117;BME280;7137;51.436;6.544;2023-04-02T09:24:34;101626.03;;;5.52;85.98
14117;BME280;7137;51.436;6.544;2023-04-02T09:27:37;101634.72;;;5.68;87.31
14117;BME280;7137;51.436;6.544;2023-04-02T09:30:56;101646.94;;;6.00;85.83
14117;BME280;7137;51.436;6.544;2023-04-02T09:34:00;101646.88;;;5.89;85.07
14117;BME280;7137;51.436;6.544;2023-04-02T09:37:06;101655.44;;;5.65;83.51
14117;BME280;7137;51.436;6.544;2023-04-02T09:40:17;101654.59;;;5.68;84.81
14117;BME280;7137;51.436;6.544;2023-04-02T09:43:21;101662.41;;;5.81;83.51
14117;BME280;7137;51.436;6.544;2023-04-02T09:46:25;101677.78;;;5.40;85.20
14117;BME280;7137;51.436;6.544;2023-04-02T09:49:29;101677.78;;;5.39;85.55
14117;BME280;7137;51.436;6.544;2023-04-02T09:52:31;101679.53;;;5.47;85.67
14117;BME280;7137;51.436;6.544;2023-04-02T09:55:33;101684.81;;;5.64;85.68
14117;BME280;7137;51.436;6.544;2023-04-02T09:58:34;101686.50;;;5.56;84.75
14117;BME280;7137;51.436;6.544;2023-04-02T10:01:39;101694.25;;;5.50;84.50
14117;BME280;7137;51.436;6.544;2023-04-02T10:04:42;101696.88;;;5.59;85.80
14117;BME280;7137;51.436;6.544;2023-04-02T10:07:47;101697.66;;;5.44;85.37
14117;BME280;7137;51.436;6.544;2023-04-02T10:10:52;101710.81;;;5.79;85.40
14117;BME280;7137;51.436;6.544;2023-04-02T10:13:56;101715.13;;;5.79;84.34
14117;BME280;7137;51.436;6.544;2023-04-02T10:17:06;101705.63;;;5.88;83.45
14117;BME280;7137;51.436;6.544;2023-04-02T10:20:16;101711.53;;;5.49;83.82
14117;BME280;7137;51.436;6.544;2023-04-02T10:23:22;101735.78;;;5.68;83.99
14117;BME280;7137;51.436;6.544;2023-04-02T10:26:50;101736.50;;;5.43;85.04
14117;BME280;7137;51.436;6.544;2023-04-02T10:30:04;101740.97;;;5.65;83.83
14117;BME280;7137;51.436;6.544;2023-04-02T10:33:13;101749.56;;;5.62;83.97
14117;BME280;7137;51.436;6.544;2023-04-02T10:36:24;101760.94;;;5.89;83.26
14117;BME280;7137;51.436;6.544;2023-04-02T10:39:34;101767.09;;;5.99;82.31
14117;BME280;7137;51.436;6.544;2023-04-02T10:42:44;101777.50;;;6.09;82.19
14117;BME280;7137;51.436;6.544;2023-04-02T10:45:57;101784.38;;;6.01;82.87
14117;BME280;7137;51.436;6.544;2023-04-02T10:49:12;101781.78;;;6.00;83.01
14117;BME280;7137;51.436;6.544;2023-04-02T10:52:20;101798.31;;;6.28;81.52
14117;BME280;7137;51.436;6.544;2023-04-02T10:55:28;101805.09;;;5.97;82.18
14117;BME280;7137;51.436;6.544;2023-04-02T10:58:32;101815.59;;;6.21;81.93
14117;BME280;7137;51.436;6.544;2023-04-02T11:01:36;101812.16;;;6.33;81.19
14117;BME280;7137;51.436;6.544;2023-04-02T11:04:42;101826.59;;;5.83;81.00
14117;BME280;7137;51.436;6.544;2023-04-02T11:07:52;101821.63;;;6.14;81.08
14117;BME280;7137;51.436;6.544;2023-04-02T11:10:58;101819.88;;;6.13;81.23
14117;BME280;7137;51.436;6.544;2023-04-02T11:14:07;101827.59;;;6.01;80.71
14117;BME280;7137;51.436;6.544;2023-04-02T11:17:13;101829.50;;;6.41;80.60
14117;BME280;7137;51.436;6.544;2023-04-02T11:20:55;101827.78;;;6.39;79.66
14117;BME280;7137;51.436;6.544;2023-04-02T11:23:59;101833.81;;;6.35;78.90
14117;BME280;7137;51.436;6.544;2023-04-02T11:27:12;101836.31;;;6.16;80.66
14117;BME280;7137;51.436;6.544;2023-04-02T11:30:21;101841.44;;;6.04;80.47
14117;BME280;7137;51.436;6.544;2023-04-02T11:33:37;101839.81;;;6.26;80.28
14117;BME280;7137;51.436;6.544;2023-04-02T11:37:00;101846.63;;;6.03;80.17
14117;BME280;7137;51.436;6.544;2023-04-02T11:43:59;101852.91;;;6.55;79.58
14117;BME280;7137;51.436;6.544;2023-04-02T11:47:17;101855.56;;;6.70;79.38
14117;BME280;7137;51.436;6.544;2023-04-02T11:50:27;101852.13;;;6.76;77.85
14117;BME280;7137;51.436;6.544;2023-04-02T11:53:32;101857.28;;;6.73;77.86
14117;BME280;7137;51.436;6.544;2023-04-02T11:56:39;101865.13;;;6.87;76.64
14117;BME280;7137;51.436;6.544;2023-04-02T11:59:51;101874.59;;;6.68;77.09
14117;BME280;7137;51.436;6.544;2023-04-02T12:03:17;101878.69;;;6.14;78.45
14117;BME280;7137;51.436;6.544;2023-04-02T12:06:32;101879.63;;;6.31;78.74
14117;BME280;7137;51.436;6.544;2023-04-02T12:09:44;101893.50;;;6.36;79.21
14117;BME280;7137;51.436;6.544;2023-04-02T12:12:48;101894.31;;;6.29;78.56
14117;BME280;7137;51.436;6.544;2023-04-02T12:15:51;101901.28;;;6.35;78.07
14117;BME280;7137;51.436;6.544;2023-04-02T12:18:53;101910.84;;;6.45;77.84
14117;BME280;7137;51.436;6.544;2023-04-02T12:21:56;101908.91;;;6.07;77.71
14117;BME280;7137;51.436;6.544;2023-04-02T12:25:03;101914.28;;;6.39;78.12
14117;BME280;7137;51.436;6.544;2023-04-02T12:28:13;101921.31;;;6.66;77.42
14117;BME280;7137;51.436;6.544;2023-04-02T12:31:19;101928.19;;;6.57;77.08
14117;BME280;7137;51.436;6.544;2023-04-02T12:34:27;101929.06;;;6.60;76.38
14117;BME280;7137;51.436;6.544;2023-04-02T12:37:29;101930.03;;;6.88;74.92
14117;BME280;7137;51.436;6.544;2023-04-02T12:40:32;101928.34;;;6.90;74.59
14117;BME280;7137;51.436;6.544;2023-04-02T12:43:35;101936.97;;;6.80;76.07
14117;BME280;7137;51.436;6.544;2023-04-02T12:46:39;101934.31;;;6.65;75.48
14117;BME280;7137;51.436;6.544;2023-04-02T12:49:42;101934.19;;;6.45;74.99
14117;BME280;7137;51.436;6.544;2023-04-02T12:52:45;101946.38;;;6.58;76.52
14117;BME280;7137;51.436;6.544;2023-04-02T12:55:49;101942.91;;;6.58;74.90
14117;BME280;7137;51.436;6.544;2023-04-02T12:58:53;101956.00;;;6.79;76.40
14117;BME280;7137;51.436;6.544;2023-04-02T13:01:56;101958.66;;;6.93;74.83
14117;BME280;7137;51.436;6.544;2023-04-02T13:05:00;101951.72;;;6.95;74.36
14117;BME280;7137;51.436;6.544;2023-04-02T13:08:02;101962.94;;;6.83;74.19
14117;BME280;7137;51.436;6.544;2023-04-02T13:11:06;101966.31;;;6.68;74.74
14117;BME280;7137;51.436;6.544;2023-04-02T13:14:15;101960.31;;;6.77;73.99
14117;BME280;7137;51.436;6.544;2023-04-02T13:17:37;101973.09;;;6.43;73.89
14117;BME280;7137;51.436;6.544;2023-04-02T13:20:41;101971.53;;;6.73;74.93
14117;BME280;7137;51.436;6.544;2023-04-02T13:23:43;101966.47;;;7.03;74.59
14117;BME280;7137;51.436;6.544;2023-04-02T13:26:47;101981.91;;;6.73;73.71
14117;BME280;7137;51.436;6.544;2023-04-02T13:29:49;101975.91;;;6.84;74.52
14117;BME280;7137;51.436;6.544;2023-04-02T13:32:51;101969.91;;;6.92;73.72
14117;BME280;7137;51.436;6.544;2023-04-02T13:35:53;101978.56;;;6.98;71.73
14117;BME280;7137;51.436;6.544;2023-04-02T13:38:54;101987.16;;;6.76;71.92
14117;BME280;7137;51.436;6.544;2023-04-02T13:41:59;102000.16;;;6.85;71.30
14117;BME280;7137;51.436;6.544;2023-04-02T13:45:01;101996.75;;;7.01;71.62
14117;BME280;7137;51.436;6.544;2023-04-02T13:48:04;101991.56;;;6.92;71.65
14117;BME280;7137;51.436;6.544;2023-04-02T13:51:08;101986.31;;;6.81;71.50
14117;BME280;7137;51.436;6.544;2023-04-02T13:54:18;101990.75;;;7.16;70.13
14117;BME280;7137;51.436;6.544;2023-04-02T13:57:22;101999.44;;;7.26;70.00
14117;BME280;7137;51.436;6.544;2023-04-02T14:00:23;102002.09;;;7.35;70.22
14117;BME280;7137;51.436;6.544;2023-04-02T14:03:26;102009.91;;;7.52;69.06
14117;BME280;7137;51.436;6.544;2023-04-02T14:06:38;102011.66;;;7.54;67.74
14117;BME280;7137;51.436;6.544;2023-04-02T14:09:59;101996.94;;;7.47;68.90
14117;BME280;7137;51.436;6.544;2023-04-02T14:13:12;101996.94;;;7.67;67.00
14117;BME280;7137;51.436;6.544;2023-04-02T14:16:26;101987.41;;;7.98;66.06
14117;BME280;7137;51.436;6.544;2023-04-02T14:19:45;101985.69;;;8.38;65.96
14117;BME280;7137;51.436;6.544;2023-04-02T14:23:05;101979.50;;;8.77;66.50
14117;BME280;7137;51.436;6.544;2023-04-02T14:26:17;101987.41;;;8.38;63.55
14117;BME280;7137;51.436;6.544;2023-04-02T14:29:26;101992.53;;;8.79;63.16
14117;BME280;7137;51.436;6.544;2023-04-02T14:32:39;102001.19;;;8.84;63.84
14117;BME280;7137;51.436;6.544;2023-04-02T14:35:48;101996.84;;;8.80;61.74
14117;BME280;7137;51.436;6.544;2023-04-02T14:38:55;101994.09;;;9.16;61.59
14117;BME280;7137;51.436;6.544;2023-04-02T14:42:01;102000.81;;;9.54;61.07
14117;BME280;7137;51.436;6.544;2023-04-02T14:45:11;101997.22;;;9.75;59.16
14117;BME280;7137;51.436;6.544;2023-04-02T14:48:26;102012.34;;;9.18;61.40
14117;BME280;7137;51.436;6.544;2023-04-02T14:51:34;102017.66;;;8.84;62.27
14117;BME280;7137;51.436;6.544;2023-04-02T14:54:39;102011.59;;;8.88;60.54
14117;BME280;7137;51.436;6.544;2023-04-02T14:57:51;102022.75;;;9.19;58.75
14117;BME280;7137;51.436;6.544;2023-04-02T15:00:57;102014.13;;;9.05;60.06
14117;BME280;7137;51.436;6.544;2023-04-02T15:04:03;102023.78;;;8.80;60.58
14117;BME280;7137;51.436;6.544;2023-04-02T15:07:13;102020.38;;;8.43;61.51
14117;BME280;7137;51.436;6.544;2023-04-02T15:10:23;102023.00;;;8.34;61.26
14117;BME280;7137;51.436;6.544;2023-04-02T15:13:30;102033.38;;;8.60;61.01
14117;BME280;7137;51.436;6.544;2023-04-02T15:16:35;102027.25;;;8.81;60.84
14117;BME280;7137;51.436;6.544;2023-04-02T15:19:36;102032.44;;;8.88;60.99
14117;BME280;7137;51.436;6.544;2023-04-02T15:22:43;102028.19;;;8.60;61.00
14117;BME280;7137;51.436;6.544;2023-04-02T15:25:49;102036.75;;;8.94;61.62
14117;BME280;7137;51.436;6.544;2023-04-02T15:29:01;102038.41;;;9.12;62.15
14117;BME280;7137;51.436;6.544;2023-04-02T15:32:18;102040.34;;;8.17;60.74
14117;BME280;7137;51.436;6.544;2023-04-02T15:35:33;102038.59;;;8.22;62.22
14117;BME280;7137;51.436;6.544;2023-04-02T15:38:41;102042.94;;;8.21;60.99
14117;BME280;7137;51.436;6.544;2023-04-02T15:41:52;102042.09;;;8.47;60.42
14117;BME280;7137;51.436;6.544;2023-04-02T15:45:14;102046.38;;;8.74;59.99
14117;BME280;7137;51.436;6.544;2023-04-02T15:48:27;102055.06;;;8.73;59.93
14117;BME280;7137;51.436;6.544;2023-04-02T15:51:38;102056.75;;;8.84;59.56
14117;BME280;7137;51.436;6.544;2023-04-02T15:55:01;102066.31;;;8.82;60.63
14117;BME280;7137;51.436;6.544;2023-04-02T15:58:18;102069.84;;;8.54;60.31
14117;BME280;7137;51.436;6.544;2023-04-02T16:01:25;102068.06;;;8.70;60.33
14117;BME280;7137;51.436;6.544;2023-04-02T16:04:42;102063.72;;;8.72;59.55
14117;BME280;7137;51.436;6.544;2023-04-02T16:08:00;102072.38;;;8.84;59.44
14117;BME280;7137;51.436;6.544;2023-04-02T16:11:10;102080.22;;;8.78;60.05
14117;BME280;7137;51.436;6.544;2023-04-02T16:14:21;102088.09;;;8.37;60.40
14117;BME280;7137;51.436;6.544;2023-04-02T16:17:27;102087.19;;;8.53;61.25
14117;BME280;7137;51.436;6.544;2023-04-02T16:20:36;102090.66;;;8.71;60.50
14117;BME280;7137;51.436;6.544;2023-04-02T16:23:41;102090.63;;;8.89;61.40
14117;BME280;7137;51.436;6.544;2023-04-02T16:26:50;102101.84;;;9.17;59.40
14117;BME280;7137;51.436;6.544;2023-04-02T16:30:16;102101.97;;;8.59;59.14
14117;BME280;7137;51.436;6.544;2023-04-02T16:33:35;102108.03;;;8.43;59.20
14117;BME280;7137;51.436;6.544;2023-04-02T16:36:50;102121.91;;;8.32;59.81
14117;BME280;7137;51.436;6.544;2023-04-02T16:40:02;102123.63;;;8.32;58.93
14117;BME280;7137;51.436;6.544;2023-04-02T16:43:17;102120.16;;;8.24;60.43
14117;BME280;7137;51.436;6.544;2023-04-02T16:46:24;102132.28;;;8.29;60.37